Time,TemperatureF,DewpointF,PressureIn,WindDirection,WindDirectionDegrees,WindSpeedMPH,WindSpeedGustMPH,Humidity,HourlyPrecipIn,Conditions,Clouds,dailyrainin,SoftwareType,DateUTC
2013-06-04 00:02:00,59.2,50.5,30.04,ESE,112,4.3,4.6,73,0.00,,OVC,0.00,WeatherDisplay:10.37,2013-06-04 05:02:00,
2013-06-04 00:07:00,59.4,50.3,30.04,ESE,112,5.6,5.8,72,0.00,,OVC,0.00,WeatherDisplay:10.37,2013-06-04 05:07:00,
2013-06-04 00:12:00,59.4,50.3,30.04,SE,135,4.7,4.7,72,0.00,,OVC,0.00,WeatherDisplay:10.37,2013-06-04 05:12:00,
2013-06-04 00:17:00,59.4,50.7,30.04,ESE,112,4.9,5.8,73,0.00,,OVC,0.00,WeatherDisplay:10.37,2013-06-04 05:17:00,
2013-06-04 00:22:00,59.4,50.3,30.04,SE,135,5.4,5.8,72,0.00,,OVC,0.00,WeatherDisplay:10.37,2013-06-04 05:22:00,
2013-06-04 00:27:00,59.4,50.3,30.03,ESE,112,4.7,5.8,72,0.00,,OVC,0.00,WeatherDisplay:10.37,2013-06-04 05:27:00,
2013-06-04 00:32:00,59.4,50.7,30.03,SE,135,5.6,5.8,73,0.00,,OVC,0.00,WeatherDisplay:10.37,2013-06-04 05:32:00,
2013-06-04 00:37:00,59.4,50.7,30.02,East,90,5.4,5.8,73,0.00,,OVC,0.00,WeatherDisplay:10.37,2013-06-04 05:37:00,
2013-06-04 00:42:00,59.2,50.5,30.02,East,90,6.2,6.9,73,0.00,,OVC,0.00,WeatherDisplay:10.37,2013-06-04 05:42:00,
2013-06-04 00:47:00,59.2,50.5,30.02,SE,135,6.2,6.2,73,0.00,,OVC,0.00,WeatherDisplay:10.37,2013-06-04 05:47:00,
2013-06-04 00:52:00,59.0,50.4,30.02,SE,135,6.9,6.9,73,0.00,,OVC,0.00,WeatherDisplay:10.37,2013-06-04 05:52:00,
2013-06-04 00:57:00,58.8,50.2,30.02,ESE,112,6.7,9.2,73,0.00,,OVC,0.00,WeatherDisplay:10.37,2013-06-04 05:57:00,
2013-06-04 01:02:00,58.8,50.2,30.03,ESE,112,7.4,8.1,73,0.00,,OVC,0.00,WeatherDisplay:10.37,2013-06-04 06:02:00,
2013-06-04 01:07:00,58.8,50.2,30.03,ESE,112,6.0,6.0,73,0.00,,OVC,0.00,WeatherDisplay:10.37,2013-06-04 06:07:00,
2013-06-04 01:12:00,58.8,50.2,30.03,ESE,112,7.6,7.6,73,0.00,,OVC,0.00,WeatherDisplay:10.37,2013-06-04 06:12:00,
2013-06-04 01:17:00,58.8,50.2,30.02,ESE,112,9.2,9.2,73,0.00,,OVC,0.00,WeatherDisplay:10.37,2013-06-04 06:17:00,
2013-06-04 01:22:00,58.8,49.8,30.03,SE,135,7.8,9.2,72,0.00,,OVC,0.00,WeatherDisplay:10.37,2013-06-04 06:22:00,
2013-06-04 01:27:00,58.8,49.8,30.02,SE,135,5.2,6.9,72,0.00,,OVC,0.00,WeatherDisplay:10.37,2013-06-04 06:27:00,
2013-06-04 01:32:00,58.8,50.2,30.02,SE,135,9.9,9.9,73,0.00,,OVC,0.00,WeatherDisplay:10.37,2013-06-04 06:32:00,
2013-06-04 01:37:00,58.8,50.2,30.02,ESE,112,6.9,6.9,73,0.00,,OVC,0.00,WeatherDisplay:10.37,2013-06-04 06:37:00,
2013-06-04 01:42:00,58.6,50.0,30.02,SE,135,9.2,9.2,73,0.00,,OVC,0.00,WeatherDisplay:10.37,2013-06-04 06:42:00,
2013-06-04 01:47:00,58.6,50.0,30.02,ESE,112,7.6,8.1,73,0.00,,OVC,0.00,WeatherDisplay:10.37,2013-06-04 06:47:00,
2013-06-04 01:52:00,58.6,49.6,30.02,SE,135,7.6,8.1,72,0.00,,OVC,0.00,WeatherDisplay:10.37,2013-06-04 06:52:00,
2013-06-04 01:57:00,58.6,49.6,30.02,SE,135,6.9,8.1,72,0.00,,OVC,0.00,WeatherDisplay:10.37,2013-06-04 06:57:00,
2013-06-04 02:02:00,58.6,49.6,30.02,ESE,112,7.4,10.4,72,0.00,,OVC,0.00,WeatherDisplay:10.37,2013-06-04 07:02:00,
2013-06-04 02:07:00,58.6,49.6,30.03,SSE,158,5.9,8.1,72,0.00,,OVC,0.00,WeatherDisplay:10.37,2013-06-04 07:07:00,
2013-06-04 02:12:00,58.6,49.6,30.03,SE,135,7.8,8.1,72,0.00,,OVC,0.00,WeatherDisplay:10.37,2013-06-04 07:12:00,
2013-06-04 02:17:00,58.5,49.5,30.03,SSE,158,9.2,10.4,72,0.00,,OVC,0.00,WeatherDisplay:10.37,2013-06-04 07:17:00,
2013-06-04 02:22:00,58.5,49.8,30.03,SE,135,10.0,10.0,73,0.00,,OVC,0.00,WeatherDisplay:10.37,2013-06-04 07:22:00,
2013-06-04 02:27:00,58.3,49.7,30.03,SE,135,9.9,11.5,73,0.00,,OVC,0.00,WeatherDisplay:10.37,2013-06-04 07:27:00,
2013-06-04 02:32:00,58.3,49.7,30.03,SE,135,8.1,10.4,73,0.00,,OVC,0.00,WeatherDisplay:10.37,2013-06-04 07:32:00,
2013-06-04 02:37:00,58.1,49.5,30.04,SSE,158,9.2,9.2,73,0.00,,OVC,0.00,WeatherDisplay:10.37,2013-06-04 07:37:00,
2013-06-04 02:42:00,58.1,49.5,30.04,SSE,158,9.2,10.4,73,0.00,,OVC,0.00,WeatherDisplay:10.37,2013-06-04 07:42:00,
2013-06-04 02:48:00,58.1,49.5,30.04,SE,135,9.2,9.2,73,0.00,,OVC,0.00,WeatherDisplay:10.37,2013-06-04 07:48:00,
2013-06-04 02:53:00,58.1,49.5,30.04,SSE,158,10.9,11.5,73,0.00,,OVC,0.00,WeatherDisplay:10.37,2013-06-04 07:53:00,
2013-06-04 02:58:00,58.3,49.7,30.04,SSE,158,10.0,10.4,73,0.00,,OVC,0.00,WeatherDisplay:10.37,2013-06-04 07:58:00,
2013-06-04 03:03:00,58.3,49.7,30.04,SSE,158,12.1,12.1,73,0.00,,OVC,0.00,WeatherDisplay:10.37,2013-06-04 08:03:00,
2013-06-04 03:08:00,58.3,49.7,30.04,SE,135,13.0,13.0,73,0.00,,OVC,0.00,WeatherDisplay:10.37,2013-06-04 08:08:00,
2013-06-04 03:13:00,58.3,49.7,30.03,SSE,158,13.0,13.0,73,0.00,,OVC,0.00,WeatherDisplay:10.37,2013-06-04 08:13:00,
2013-06-04 03:18:00,58.3,49.7,30.03,SSE,158,13.9,13.9,73,0.00,,OVC,0.00,WeatherDisplay:10.37,2013-06-04 08:18:00,
2013-06-04 03:23:00,58.3,49.7,30.03,SSE,158,13.5,13.8,73,0.00,,OVC,0.00,WeatherDisplay:10.37,2013-06-04 08:23:00,
2013-06-04 03:28:00,58.3,49.7,30.03,SSE,158,12.1,12.7,73,0.00,,OVC,0.00,WeatherDisplay:10.37,2013-06-04 08:28:00,
2013-06-04 03:33:00,58.1,49.9,30.03,SE,135,11.8,11.8,74,0.00,,OVC,0.00,WeatherDisplay:10.37,2013-06-04 08:33:00,
2013-06-04 03:38:00,58.1,49.9,30.03,SSE,158,10.5,11.5,74,0.00,,OVC,0.00,WeatherDisplay:10.37,2013-06-04 08:38:00,
2013-06-04 03:44:00,57.9,49.7,30.03,SSE,158,11.4,11.6,74,0.00,,OVC,0.00,WeatherDisplay:10.37,2013-06-04 08:44:00,
2013-06-04 03:49:00,57.9,49.7,30.03,SE,135,11.4,12.7,74,0.00,,OVC,0.00,WeatherDisplay:10.37,2013-06-04 08:49:00,
2013-06-04 03:54:00,57.9,49.7,30.02,SE,135,11.8,11.8,74,0.00,,OVC,0.00,WeatherDisplay:10.37,2013-06-04 08:54:00,
2013-06-04 03:59:00,57.7,49.9,30.01,SE,135,10.5,10.5,75,0.00,,OVC,0.00,WeatherDisplay:10.37,2013-06-04 08:59:00,
2013-06-04 04:04:00,57.6,49.7,30.01,SE,135,9.2,11.5,75,0.00,,OVC,0.00,WeatherDisplay:10.37,2013-06-04 09:04:00,
2013-06-04 04:09:00,57.6,49.7,30.01,SE,135,9.9,10.4,75,0.00,,OVC,0.00,WeatherDisplay:10.37,2013-06-04 09:09:00,
2013-06-04 04:14:00,57.6,49.7,30.02,SE,135,8.3,9.2,75,0.00,,OVC,0.00,WeatherDisplay:10.37,2013-06-04 09:14:00,
2013-06-04 04:19:00,57.6,49.7,30.03,SSE,158,6.2,8.1,75,0.00,,OVC,0.00,WeatherDisplay:10.37,2013-06-04 09:19:00,
2013-06-04 04:24:00,57.6,49.7,30.02,ESE,112,6.4,9.2,75,0.00,,OVC,0.00,WeatherDisplay:10.37,2013-06-04 09:24:00,
2013-06-04 04:29:00,57.6,49.7,30.02,SE,135,7.8,9.2,75,0.00,,OVC,0.00,WeatherDisplay:10.37,2013-06-04 09:29:00,
2013-06-04 04:34:00,57.6,49.7,30.02,SE,135,6.7,9.2,75,0.00,,OVC,0.00,WeatherDisplay:10.37,2013-06-04 09:34:00,
2013-06-04 04:39:00,57.6,49.3,30.02,SE,135,5.4,6.9,74,0.00,,OVC,0.00,WeatherDisplay:10.37,2013-06-04 09:39:00,
2013-06-04 04:44:00,57.4,49.5,30.02,ESE,112,4.5,6.9,75,0.00,,OVC,0.00,WeatherDisplay:10.37,2013-06-04 09:44:00,
2013-06-04 04:49:00,57.4,49.5,30.02,SE,135,5.4,5.8,75,0.00,,OVC,0.00,WeatherDisplay:10.37,2013-06-04 09:49:00,
2013-06-04 04:54:00,57.2,49.3,30.03,SSE,158,5.6,5.8,75,0.00,,OVC,0.00,WeatherDisplay:10.37,2013-06-04 09:54:00,
2013-06-04 04:59:00,57.2,49.3,30.03,SE,135,6.2,6.9,75,0.00,,OVC,0.00,WeatherDisplay:10.37,2013-06-04 09:59:00,
2013-06-04 05:04:00,57.2,49.3,30.03,SSE,158,5.4,6.9,75,0.00,,OVC,0.00,WeatherDisplay:10.37,2013-06-04 10:04:00,
2013-06-04 05:09:00,57.2,49.3,30.03,ESE,112,5.6,8.1,75,0.00,,OVC,0.00,WeatherDisplay:10.37,2013-06-04 10:09:00,
2013-06-04 05:14:00,57.2,49.3,30.03,SE,135,9.9,9.9,75,0.00,,OVC,0.00,WeatherDisplay:10.37,2013-06-04 10:14:00,
2013-06-04 05:19:00,57.0,49.2,30.03,SE,135,8.1,8.1,75,0.00,,OVC,0.00,WeatherDisplay:10.37,2013-06-04 10:19:00,
2013-06-04 05:24:00,56.8,49.4,30.03,SE,135,8.1,8.1,76,0.00,,OVC,0.00,WeatherDisplay:10.37,2013-06-04 10:24:00,
2013-06-04 05:29:00,56.8,49.4,30.04,SE,135,6.0,6.9,76,0.00,,OVC,0.00,WeatherDisplay:10.37,2013-06-04 10:29:00,
2013-06-04 05:34:00,56.8,49.4,30.04,SE,135,6.0,6.0,76,0.00,,OVC,0.00,WeatherDisplay:10.37,2013-06-04 10:34:00,
2013-06-04 05:39:00,56.8,49.4,30.04,SE,135,4.9,4.9,76,0.00,,OVC,0.00,WeatherDisplay:10.37,2013-06-04 10:39:00,
2013-06-04 05:44:00,56.7,49.2,30.04,SE,135,6.9,6.9,76,0.00,,OVC,0.00,WeatherDisplay:10.37,2013-06-04 10:44:00,
2013-06-04 05:49:00,56.7,49.2,30.04,SE,135,6.4,6.9,76,0.00,,OVC,0.00,WeatherDisplay:10.37,2013-06-04 10:49:00,
2013-06-04 05:54:00,56.7,49.2,30.03,SE,135,7.4,7.4,76,0.00,,OVC,0.00,WeatherDisplay:10.37,2013-06-04 10:54:00,
2013-06-04 05:59:00,56.5,49.0,30.04,SE,135,5.6,6.9,76,0.00,,OVC,0.00,WeatherDisplay:10.37,2013-06-04 10:59:00,
2013-06-04 06:04:00,56.5,49.0,30.04,SE,135,6.2,6.9,76,0.00,,OVC,0.00,WeatherDisplay:10.37,2013-06-04 11:04:00,
2013-06-04 06:09:00,56.5,49.0,30.04,ESE,112,3.8,6.9,76,0.00,,OVC,0.00,WeatherDisplay:10.37,2013-06-04 11:09:00,
2013-06-04 06:14:00,56.5,49.0,30.05,ESE,112,4.3,4.6,76,0.00,,OVC,0.00,WeatherDisplay:10.37,2013-06-04 11:14:00,
2013-06-04 06:19:00,56.5,49.0,30.06,East,90,0.0,1.2,76,0.00,,OVC,0.00,WeatherDisplay:10.37,2013-06-04 11:19:00,
2013-06-04 06:24:00,56.5,49.0,30.08,NNE,22,4.9,4.9,76,0.00,,OVC,0.00,WeatherDisplay:10.37,2013-06-04 11:24:00,
2013-06-04 06:29:00,56.5,49.0,30.09,NNE,22,2.2,4.6,76,0.00,,OVC,0.00,WeatherDisplay:10.37,2013-06-04 11:29:00,
2013-06-04 06:34:00,56.5,49.0,30.09,NNE,22,0.0,0.0,76,0.00,,OVC,0.00,WeatherDisplay:10.37,2013-06-04 11:34:00,
2013-06-04 06:39:00,56.5,49.0,30.09,East,90,2.6,3.5,76,0.00,,OVC,0.00,WeatherDisplay:10.37,2013-06-04 11:39:00,
2013-06-04 06:44:00,56.5,49.0,30.09,East,90,0.9,0.9,76,0.00,,OVC,0.00,WeatherDisplay:10.37,2013-06-04 11:44:00,
2013-06-04 06:49:00,56.5,49.0,30.09,East,90,2.4,3.5,76,0.00,,OVC,0.00,WeatherDisplay:10.37,2013-06-04 11:49:00,
2013-06-04 06:54:00,56.3,48.8,30.08,SE,135,1.8,2.3,76,0.00,,OVC,0.00,WeatherDisplay:10.37,2013-06-04 11:54:00,
2013-06-04 06:59:00,56.3,48.8,30.09,ENE,68,4.5,5.8,76,0.00,,OVC,0.00,WeatherDisplay:10.37,2013-06-04 11:59:00,
2013-06-04 07:04:00,56.3,48.8,30.09,East,90,4.7,4.7,76,0.00,,OVC,0.00,WeatherDisplay:10.37,2013-06-04 12:04:00,
2013-06-04 07:09:00,56.5,49.0,30.09,East,90,0.5,2.3,76,0.00,,OVC,0.00,WeatherDisplay:10.37,2013-06-04 12:09:00,
2013-06-04 07:14:00,56.5,49.4,30.10,East,90,1.6,1.6,77,0.00,,OVC,0.00,WeatherDisplay:10.37,2013-06-04 12:14:00,
2013-06-04 07:19:00,56.5,49.4,30.11,East,90,2.4,2.4,77,0.00,,OVC,0.00,WeatherDisplay:10.37,2013-06-04 12:19:00,
2013-06-04 07:24:00,56.5,49.0,30.11,ESE,112,3.1,3.1,76,0.00,,OVC,0.00,WeatherDisplay:10.37,2013-06-04 12:24:00,
2013-06-04 07:29:00,56.7,49.5,30.11,ESE,112,4.0,4.6,77,0.00,,OVC,0.00,WeatherDisplay:10.37,2013-06-04 12:29:00,
2013-06-04 07:34:00,56.7,49.5,30.11,ESE,112,6.2,6.2,77,0.00,,OVC,0.00,WeatherDisplay:10.37,2013-06-04 12:34:00,
2013-06-04 07:39:00,56.7,49.5,30.10,SE,135,6.4,6.9,77,0.00,,OVC,0.00,WeatherDisplay:10.37,2013-06-04 12:39:00,
2013-06-04 07:44:00,56.7,49.2,30.11,ESE,112,7.8,9.2,76,0.00,,OVC,0.00,WeatherDisplay:10.37,2013-06-04 12:44:00,
2013-06-04 07:49:00,56.7,49.2,30.11,ESE,112,6.2,6.9,76,0.00,,OVC,0.00,WeatherDisplay:10.37,2013-06-04 12:49:00,
2013-06-04 07:54:00,56.7,49.5,30.11,ESE,112,8.3,8.3,77,0.00,,OVC,0.00,WeatherDisplay:10.37,2013-06-04 12:54:00,
2013-06-04 07:59:00,56.7,49.2,30.12,ESE,112,5.4,6.9,76,0.00,,OVC,0.00,WeatherDisplay:10.37,2013-06-04 12:59:00,
2013-06-04 08:04:00,56.5,49.4,30.12,ESE,112,7.6,8.1,77,0.00,,OVC,0.00,WeatherDisplay:10.37,2013-06-04 13:04:00,
2013-06-04 08:09:00,56.5,49.4,30.12,ESE,112,6.9,6.9,77,0.00,,OVC,0.00,WeatherDisplay:10.37,2013-06-04 13:09:00,
2013-06-04 08:14:00,56.5,49.4,30.13,ESE,112,7.4,7.4,77,0.00,,OVC,0.00,WeatherDisplay:10.37,2013-06-04 13:14:00,
2013-06-04 08:19:00,56.5,49.4,30.13,ESE,112,6.9,8.1,77,0.00,,OVC,0.00,WeatherDisplay:10.37,2013-06-04 13:19:00,
2013-06-04 08:24:00,56.7,49.5,30.13,ESE,112,7.8,7.8,77,0.00,,OVC,0.00,WeatherDisplay:10.37,2013-06-04 13:24:00,
2013-06-04 08:29:00,56.7,49.5,30.13,SE,135,6.9,6.9,77,0.00,,OVC,0.00,WeatherDisplay:10.37,2013-06-04 13:29:00,
2013-06-04 08:35:00,56.7,49.5,30.13,ESE,112,5.9,6.9,77,0.00,,OVC,0.00,WeatherDisplay:10.37,2013-06-04 13:35:00,
2013-06-04 08:40:00,56.7,49.5,30.13,SE,135,6.7,8.1,77,0.00,,OVC,0.00,WeatherDisplay:10.37,2013-06-04 13:40:00,
2013-06-04 08:45:00,56.7,49.5,30.12,ESE,112,8.3,8.3,77,0.00,,OVC,0.00,WeatherDisplay:10.37,2013-06-04 13:45:00,
2013-06-04 08:50:00,56.5,49.4,30.11,ESE,112,5.4,8.1,77,0.00,,OVC,0.00,WeatherDisplay:10.37,2013-06-04 13:50:00,
2013-06-04 08:55:00,56.5,49.4,30.10,ESE,112,6.9,8.1,77,0.00,,OVC,0.00,WeatherDisplay:10.37,2013-06-04 13:55:00,
2013-06-04 09:00:00,56.5,49.4,30.09,East,90,10.2,10.2,77,0.00,,OVC,0.00,WeatherDisplay:10.37,2013-06-04 14:00:00,
2013-06-04 09:05:00,56.3,49.2,30.08,SE,135,10.2,10.4,77,0.00,,OVC,0.00,WeatherDisplay:10.37,2013-06-04 14:05:00,
2013-06-04 09:10:00,56.1,49.0,30.08,ESE,112,10.2,11.5,77,0.00,,OVC,0.00,WeatherDisplay:10.37,2013-06-04 14:10:00,
2013-06-04 09:15:00,55.9,48.8,30.08,East,90,11.2,16.1,77,0.00,,OVC,0.00,WeatherDisplay:10.37,2013-06-04 14:15:00,
2013-06-04 09:20:00,55.6,48.1,30.07,ESE,112,10.0,10.0,76,0.00,,OVC,0.01,WeatherDisplay:10.37,2013-06-04 14:20:00,
2013-06-04 09:25:00,55.4,48.0,30.07,ESE,112,12.5,12.7,76,0.01,RA,OVC,0.01,WeatherDisplay:10.37,2013-06-04 14:25:00,
2013-06-04 09:30:00,55.2,47.8,30.08,ESE,112,15.0,15.0,76,0.02,RA,OVC,0.02,WeatherDisplay:10.37,2013-06-04 14:30:00,
2013-06-04 09:35:00,55.0,47.3,30.07,ESE,112,14.3,17.3,75,0.02,RA,OVC,0.02,WeatherDisplay:10.37,2013-06-04 14:35:00,
2013-06-04 09:40:00,55.0,47.6,30.06,ESE,112,15.2,17.3,76,0.03,RA,OVC,0.03,WeatherDisplay:10.37,2013-06-04 14:40:00,
2013-06-04 09:45:00,55.0,47.3,30.05,ESE,112,12.8,15.0,75,0.03,RA,OVC,0.03,WeatherDisplay:10.37,2013-06-04 14:45:00,
2013-06-04 09:50:00,54.9,47.1,30.04,ESE,112,16.3,17.3,75,0.03,,OVC,0.03,WeatherDisplay:10.37,2013-06-04 14:50:00,
2013-06-04 09:55:00,54.9,47.1,30.04,ESE,112,15.0,16.1,75,0.04,RA,OVC,0.04,WeatherDisplay:10.37,2013-06-04 14:55:00,
2013-06-04 10:00:00,54.9,47.4,30.04,ESE,112,10.7,18.4,76,0.04,RA,OVC,0.04,WeatherDisplay:10.37,2013-06-04 15:00:00,
2013-06-04 10:05:00,55.0,47.3,30.05,ESE,112,7.4,10.4,75,0.05,RA,OVC,0.05,WeatherDisplay:10.37,2013-06-04 15:05:00,
2013-06-04 10:10:00,55.0,47.3,30.05,ESE,112,10.5,12.7,75,0.05,RA,OVC,0.05,WeatherDisplay:10.37,2013-06-04 15:10:00,
2013-06-04 10:15:00,55.0,47.6,30.05,ESE,112,9.0,13.8,76,0.05,,OVC,0.05,WeatherDisplay:10.37,2013-06-04 15:15:00,
2013-06-04 10:20:00,55.2,47.8,30.05,ESE,112,12.5,12.5,76,0.04,,OVC,0.05,WeatherDisplay:10.37,2013-06-04 15:20:00,
2013-06-04 10:25:00,55.4,48.0,30.06,ESE,112,9.7,13.8,76,0.04,,OVC,0.05,WeatherDisplay:10.37,2013-06-04 15:25:00,
2013-06-04 10:30:00,55.6,48.1,30.07,SE,135,9.9,11.5,76,0.03,,OVC,0.05,WeatherDisplay:10.37,2013-06-04 15:30:00,
2013-06-04 10:35:00,55.8,48.3,30.07,SSE,158,8.7,8.7,76,0.03,,OVC,0.05,WeatherDisplay:10.37,2013-06-04 15:35:00,
2013-06-04 10:40:00,55.8,48.3,30.07,ESE,112,9.0,10.4,76,0.03,RA,OVC,0.06,WeatherDisplay:10.37,2013-06-04 15:40:00,
2013-06-04 10:45:00,56.3,48.8,30.06,SE,135,12.1,12.1,76,0.03,RA,OVC,0.06,WeatherDisplay:10.37,2013-06-04 15:45:00,
2013-06-04 10:50:00,56.5,49.7,30.06,SE,135,11.6,11.6,78,0.03,,OVC,0.06,WeatherDisplay:10.37,2013-06-04 15:50:00,
2013-06-04 10:55:00,56.8,49.7,30.06,ESE,112,12.1,12.1,77,0.02,,OVC,0.06,WeatherDisplay:10.37,2013-06-04 15:55:00,
2013-06-04 11:00:00,57.2,49.7,30.06,ESE,112,8.7,13.8,76,0.02,,OVC,0.06,WeatherDisplay:10.37,2013-06-04 16:00:00,
2013-06-04 11:05:00,57.4,50.6,30.06,ESE,112,14.3,14.3,78,0.01,,OVC,0.06,WeatherDisplay:10.37,2013-06-04 16:05:00,
2013-06-04 11:10:00,57.4,49.9,30.06,SE,135,13.5,15.0,76,0.01,,OVC,0.06,WeatherDisplay:10.37,2013-06-04 16:10:00,
2013-06-04 11:15:00,57.6,50.4,30.06,SSE,158,13.7,13.8,77,0.01,,OVC,0.06,WeatherDisplay:10.37,2013-06-04 16:15:00,
2013-06-04 11:20:00,57.4,50.2,30.06,SE,135,17.9,17.9,77,0.01,,OVC,0.06,WeatherDisplay:10.37,2013-06-04 16:20:00,
2013-06-04 11:25:00,57.4,50.2,30.06,SE,135,13.9,16.1,77,0.01,,OVC,0.06,WeatherDisplay:10.37,2013-06-04 16:25:00,
2013-06-04 11:30:00,57.4,50.2,30.06,ESE,112,12.8,15.0,77,0.01,,OVC,0.06,WeatherDisplay:10.37,2013-06-04 16:30:00,
2013-06-04 11:35:00,57.4,50.2,30.06,SE,135,14.5,14.5,77,0.01,,OVC,0.06,WeatherDisplay:10.37,2013-06-04 16:35:00,
2013-06-04 11:40:00,57.6,50.4,30.06,ESE,112,15.6,16.1,77,0.00,,OVC,0.06,WeatherDisplay:10.37,2013-06-04 16:40:00,
2013-06-04 11:45:00,57.6,50.4,30.06,SE,135,14.3,16.1,77,0.00,,OVC,0.06,WeatherDisplay:10.37,2013-06-04 16:45:00,
2013-06-04 11:50:00,57.6,50.0,30.06,SSE,158,11.2,15.0,76,0.00,,OVC,0.06,WeatherDisplay:10.37,2013-06-04 16:50:00,
2013-06-04 11:55:00,57.6,50.0,30.06,SE,135,11.4,13.8,76,0.00,,OVC,0.06,WeatherDisplay:10.37,2013-06-04 16:55:00,
2013-06-04 12:00:00,57.6,50.4,30.05,SSE,158,15.6,17.3,77,0.00,,OVC,0.06,WeatherDisplay:10.37,2013-06-04 17:00:00,
2013-06-04 12:05:00,57.6,50.4,30.05,SSE,158,15.0,18.4,77,0.00,,OVC,0.06,WeatherDisplay:10.37,2013-06-04 17:05:00,
2013-06-04 12:10:00,57.6,50.4,30.05,ESE,112,15.0,20.7,77,0.00,,OVC,0.06,WeatherDisplay:10.37,2013-06-04 17:10:00,
2013-06-04 12:15:00,57.4,50.2,30.04,SE,135,17.0,17.0,77,0.00,,OVC,0.06,WeatherDisplay:10.37,2013-06-04 17:15:00,
2013-06-04 12:20:00,57.4,50.2,30.04,ESE,112,14.5,17.3,77,0.00,,OVC,0.06,WeatherDisplay:10.37,2013-06-04 17:20:00,
2013-06-04 12:25:00,57.4,50.2,30.03,ESE,112,18.7,21.9,77,0.00,,OVC,0.06,WeatherDisplay:10.37,2013-06-04 17:25:00,
2013-06-04 12:30:00,57.6,50.0,30.02,ESE,112,17.9,18.4,76,0.00,,OVC,0.06,WeatherDisplay:10.37,2013-06-04 17:30:00,
2013-06-04 12:35:00,57.6,50.4,30.02,SE,135,17.3,17.3,77,0.00,,OVC,0.06,WeatherDisplay:10.37,2013-06-04 17:35:00,
2013-06-04 12:40:00,57.7,50.6,30.03,ESE,112,14.7,15.0,77,0.00,,OVC,0.06,WeatherDisplay:10.37,2013-06-04 17:40:00,
2013-06-04 12:45:00,57.7,50.6,30.03,SE,135,22.5,22.5,77,0.00,,OVC,0.06,WeatherDisplay:10.37,2013-06-04 17:45:00,
2013-06-04 12:50:00,57.9,50.8,30.03,SE,135,13.5,16.1,77,0.00,,OVC,0.06,WeatherDisplay:10.37,2013-06-04 17:50:00,
2013-06-04 12:55:00,57.9,50.8,30.03,SE,135,13.9,18.4,77,0.00,,OVC,0.06,WeatherDisplay:10.37,2013-06-04 17:55:00,
2013-06-04 13:00:00,57.9,50.8,30.03,ESE,112,12.1,18.4,77,0.00,,OVC,0.06,WeatherDisplay:10.37,2013-06-04 18:00:00,
2013-06-04 13:05:00,57.9,50.4,30.04,SSE,158,13.5,15.0,76,0.00,,OVC,0.06,WeatherDisplay:10.37,2013-06-04 18:05:00,
2013-06-04 13:10:00,57.9,50.4,30.04,SE,135,14.3,14.3,76,0.00,,OVC,0.06,WeatherDisplay:10.37,2013-06-04 18:10:00,
2013-06-04 13:15:00,58.1,50.9,30.04,SE,135,14.5,17.3,77,0.00,,OVC,0.06,WeatherDisplay:10.37,2013-06-04 18:15:00,
2013-06-04 13:20:00,58.3,51.1,30.05,SSE,158,10.2,11.5,77,0.00,,OVC,0.06,WeatherDisplay:10.37,2013-06-04 18:20:00,
2013-06-04 13:25:00,58.5,51.3,30.06,SE,135,11.4,11.5,77,0.00,,OVC,0.06,WeatherDisplay:10.37,2013-06-04 18:25:00,
2013-06-04 13:30:00,58.6,51.4,30.06,South,180,9.0,10.4,77,0.00,,OVC,0.06,WeatherDisplay:10.37,2013-06-04 18:30:00,
2013-06-04 13:35:00,58.6,51.1,30.06,SSE,158,17.3,17.3,76,0.00,,OVC,0.06,WeatherDisplay:10.37,2013-06-04 18:35:00,
2013-06-04 13:40:00,58.6,51.1,30.05,SSE,158,12.8,12.8,76,0.00,,OVC,0.06,WeatherDisplay:10.37,2013-06-04 18:40:00,
2013-06-04 13:45:00,58.6,51.1,30.04,ESE,112,12.1,13.8,76,0.00,,OVC,0.06,WeatherDisplay:10.37,2013-06-04 18:45:00,
2013-06-04 13:50:00,58.6,51.1,30.04,SE,135,13.5,13.5,76,0.00,,OVC,0.06,WeatherDisplay:10.37,2013-06-04 18:50:00,
2013-06-04 13:55:00,58.6,51.1,30.04,ESE,112,12.8,15.0,76,0.00,,OVC,0.06,WeatherDisplay:10.37,2013-06-04 18:55:00,
2013-06-04 14:00:00,58.6,51.4,30.04,ESE,112,14.3,14.3,77,0.00,,OVC,0.06,WeatherDisplay:10.37,2013-06-04 19:00:00,
2013-06-04 14:05:00,58.8,51.6,30.04,ESE,112,8.5,12.7,77,0.00,,OVC,0.06,WeatherDisplay:10.37,2013-06-04 19:05:00,
2013-06-04 14:10:00,58.6,51.4,30.04,ESE,112,10.9,10.9,77,0.00,,OVC,0.06,WeatherDisplay:10.37,2013-06-04 19:10:00,
2013-06-04 14:15:00,58.8,51.3,30.04,ENE,68,6.4,11.5,76,0.00,,OVC,0.06,WeatherDisplay:10.37,2013-06-04 19:15:00,
2013-06-04 14:20:00,58.8,51.6,30.04,ESE,112,8.7,8.7,77,0.00,,OVC,0.06,WeatherDisplay:10.37,2013-06-04 19:20:00,
2013-06-04 14:25:00,58.8,51.3,30.03,ESE,112,6.9,9.2,76,0.00,,OVC,0.06,WeatherDisplay:10.37,2013-06-04 19:25:00,
2013-06-04 14:30:00,58.8,51.6,30.03,East,90,8.1,11.5,77,0.00,,OVC,0.06,WeatherDisplay:10.37,2013-06-04 19:30:00,
2013-06-04 14:36:00,58.6,51.1,30.03,East,90,5.2,11.5,76,0.00,,OVC,0.06,WeatherDisplay:10.37,2013-06-04 19:36:00,
2013-06-04 14:41:00,58.8,51.6,30.03,East,90,5.9,5.9,77,0.00,,OVC,0.06,WeatherDisplay:10.37,2013-06-04 19:41:00,
2013-06-04 14:46:00,59.0,51.8,30.03,East,90,5.6,8.1,77,0.00,,OVC,0.06,WeatherDisplay:10.37,2013-06-04 19:46:00,
2013-06-04 14:51:00,59.0,51.8,30.04,ESE,112,5.2,5.8,77,0.00,,OVC,0.06,WeatherDisplay:10.37,2013-06-04 19:51:00,
2013-06-04 14:56:00,59.2,52.0,30.05,ESE,112,9.2,9.2,77,0.00,,OVC,0.06,WeatherDisplay:10.37,2013-06-04 19:56:00,
2013-06-04 15:01:00,59.0,51.4,30.05,ESE,112,10.5,10.5,76,0.00,,OVC,0.06,WeatherDisplay:10.37,2013-06-04 20:01:00,
2013-06-04 15:06:00,59.0,51.8,30.05,ESE,112,9.2,10.4,77,0.00,,OVC,0.06,WeatherDisplay:10.37,2013-06-04 20:06:00,
2013-06-04 15:11:00,59.0,51.8,30.05,ESE,112,8.5,8.5,77,0.00,,OVC,0.06,WeatherDisplay:10.37,2013-06-04 20:11:00,
2013-06-04 15:16:00,59.0,51.8,30.05,ESE,112,6.7,8.1,77,0.00,,OVC,0.06,WeatherDisplay:10.37,2013-06-04 20:16:00,
2013-06-04 15:21:00,59.0,51.4,30.06,East,90,5.6,5.8,76,0.00,,OVC,0.06,WeatherDisplay:10.37,2013-06-04 20:21:00,
2013-06-04 15:26:00,59.0,51.4,30.07,SE,135,6.0,6.0,76,0.00,,OVC,0.06,WeatherDisplay:10.37,2013-06-04 20:26:00,
2013-06-04 15:31:00,59.0,51.8,30.08,SSE,158,7.6,8.1,77,0.00,,OVC,0.06,WeatherDisplay:10.37,2013-06-04 20:31:00,
2013-06-04 15:36:00,59.0,51.4,30.08,SE,135,5.4,5.8,76,0.00,,OVC,0.06,WeatherDisplay:10.37,2013-06-04 20:36:00,
2013-06-04 15:41:00,59.0,51.4,30.08,ESE,112,3.3,4.6,76,0.00,,OVC,0.06,WeatherDisplay:10.37,2013-06-04 20:41:00,
2013-06-04 15:46:00,59.0,51.4,30.08,East,90,2.9,2.9,76,0.00,,OVC,0.06,WeatherDisplay:10.37,2013-06-04 20:46:00,
2013-06-04 15:51:00,59.0,51.8,30.08,ENE,68,2.4,3.5,77,0.00,,OVC,0.06,WeatherDisplay:10.37,2013-06-04 20:51:00,
2013-06-04 15:56:00,59.0,51.4,30.07,ENE,68,2.0,2.3,76,0.00,,OVC,0.06,WeatherDisplay:10.37,2013-06-04 20:56:00,
2013-06-04 16:01:00,58.8,51.3,30.07,ENE,68,2.4,2.4,76,0.00,,OVC,0.06,WeatherDisplay:10.37,2013-06-04 21:01:00,
2013-06-04 16:06:00,58.6,51.1,30.06,East,90,4.0,5.8,76,0.01,RA,OVC,0.07,WeatherDisplay:10.37,2013-06-04 21:06:00,
2013-06-04 16:11:00,58.3,50.4,30.05,NE,45,4.0,4.6,75,0.01,RA,OVC,0.07,WeatherDisplay:10.37,2013-06-04 21:11:00,
2013-06-04 16:17:00,58.1,50.2,30.05,East,90,5.6,9.2,75,0.01,,OVC,0.07,WeatherDisplay:10.37,2013-06-04 21:17:00,
2013-06-04 16:22:00,57.9,50.0,30.05,ENE,68,6.9,6.9,75,0.01,,OVC,0.07,WeatherDisplay:10.37,2013-06-04 21:22:00,
2013-06-04 16:27:00,57.9,50.0,30.05,NE,45,7.1,7.1,75,0.01,,OVC,0.07,WeatherDisplay:10.37,2013-06-04 21:27:00,
2013-06-04 16:32:00,57.7,49.5,30.06,NE,45,5.4,5.8,74,0.01,,OVC,0.07,WeatherDisplay:10.37,2013-06-04 21:32:00,
2013-06-04 16:37:00,57.6,49.7,30.06,ENE,68,5.4,5.8,75,0.01,,OVC,0.07,WeatherDisplay:10.37,2013-06-04 21:37:00,
2013-06-04 16:42:00,57.6,49.7,30.06,NE,45,2.4,3.5,75,0.02,RA,OVC,0.08,WeatherDisplay:10.37,2013-06-04 21:42:00,
2013-06-04 16:47:00,57.6,49.3,30.06,NE,45,4.5,4.6,74,0.02,RA,OVC,0.08,WeatherDisplay:10.37,2013-06-04 21:47:00,
2013-06-04 16:52:00,57.4,49.5,30.06,NE,45,4.0,4.0,75,0.02,,OVC,0.08,WeatherDisplay:10.37,2013-06-04 21:52:00,
2013-06-04 16:57:00,57.2,49.3,30.06,NE,45,2.4,3.5,75,0.02,,OVC,0.08,WeatherDisplay:10.37,2013-06-04 21:57:00,
2013-06-04 17:02:00,57.2,49.0,30.06,NE,45,4.0,4.0,74,0.02,,OVC,0.08,WeatherDisplay:10.37,2013-06-04 22:02:00,
2013-06-04 17:07:00,57.0,49.2,30.07,NE,45,3.3,3.5,75,0.01,,OVC,0.08,WeatherDisplay:10.37,2013-06-04 22:07:00,
2013-06-04 17:12:00,56.8,48.6,30.07,NE,45,3.6,3.6,74,0.03,RA,OVC,0.10,WeatherDisplay:10.37,2013-06-04 22:12:00,
2013-06-04 17:17:00,56.5,48.3,30.07,NE,45,3.3,3.5,74,0.04,RA,OVC,0.11,WeatherDisplay:10.37,2013-06-04 22:17:00,
2013-06-04 17:22:00,56.3,47.8,30.07,NE,45,3.3,3.5,73,0.04,RA,OVC,0.11,WeatherDisplay:10.37,2013-06-04 22:22:00,
2013-06-04 17:27:00,56.3,47.0,30.06,NE,45,2.6,3.5,71,0.04,,OVC,0.11,WeatherDisplay:10.37,2013-06-04 22:27:00,
2013-06-04 17:32:00,56.3,47.0,30.06,NNE,22,5.2,5.2,71,0.04,,OVC,0.11,WeatherDisplay:10.37,2013-06-04 22:32:00,
2013-06-04 17:37:00,56.3,46.6,30.06,NE,45,4.0,4.6,70,0.04,,OVC,0.11,WeatherDisplay:10.37,2013-06-04 22:37:00,
2013-06-04 17:42:00,56.3,46.3,30.05,NNE,22,5.2,5.2,69,0.03,,OVC,0.11,WeatherDisplay:10.37,2013-06-04 22:42:00,
2013-06-04 17:47:00,56.1,46.1,30.05,NE,45,4.0,4.6,69,0.03,,OVC,0.11,WeatherDisplay:10.37,2013-06-04 22:47:00,
2013-06-04 17:52:00,55.9,47.0,30.05,NNE,22,4.0,4.6,72,0.03,,OVC,0.11,WeatherDisplay:10.37,2013-06-04 22:52:00,
2013-06-04 17:57:00,55.8,48.0,30.05,NE,45,4.5,5.8,75,0.03,,OVC,0.11,WeatherDisplay:10.37,2013-06-04 22:57:00,
2013-06-04 18:02:00,55.4,48.3,30.04,NE,45,5.4,6.9,77,0.03,,OVC,0.11,WeatherDisplay:10.37,2013-06-04 23:02:00,
2013-06-04 18:07:00,55.0,48.0,30.03,ENE,68,5.4,5.8,77,0.03,,OVC,0.11,WeatherDisplay:10.37,2013-06-04 23:07:00,
2013-06-04 18:12:00,54.9,47.8,30.03,ENE,68,5.6,5.8,77,0.01,,OVC,0.11,WeatherDisplay:10.37,2013-06-04 23:12:00,
2013-06-04 18:17:00,54.7,48.0,30.02,NE,45,10.5,10.5,78,0.00,,OVC,0.11,WeatherDisplay:10.37,2013-06-04 23:17:00,
2013-06-04 18:22:00,54.7,48.0,30.03,NNE,22,7.6,7.6,78,0.00,,OVC,0.11,WeatherDisplay:10.37,2013-06-04 23:22:00,
2013-06-04 18:27:00,54.7,48.0,30.03,NE,45,6.2,6.2,78,0.00,,OVC,0.11,WeatherDisplay:10.37,2013-06-04 23:27:00,
2013-06-04 18:32:00,54.5,47.8,30.03,NE,45,6.2,6.2,78,0.00,,OVC,0.11,WeatherDisplay:10.37,2013-06-04 23:32:00,
2013-06-04 18:37:00,54.3,46.9,30.03,NE,45,6.0,6.9,76,0.01,RA,OVC,0.12,WeatherDisplay:10.37,2013-06-04 23:37:00,
2013-06-04 18:42:00,54.0,46.2,30.03,ENE,68,5.4,5.8,75,0.01,RA,OVC,0.12,WeatherDisplay:10.37,2013-06-04 23:42:00,
2013-06-04 18:47:00,53.6,46.2,30.03,ENE,68,5.6,6.9,76,0.01,,OVC,0.12,WeatherDisplay:10.37,2013-06-04 23:47:00,
2013-06-04 18:52:00,53.6,46.2,30.03,NE,45,5.4,6.9,76,0.01,,OVC,0.12,WeatherDisplay:10.37,2013-06-04 23:52:00,
2013-06-04 18:57:00,53.6,46.6,30.04,NE,45,4.5,4.6,77,0.01,,OVC,0.12,WeatherDisplay:10.37,2013-06-04 23:57:00,
2013-06-04 19:02:00,53.6,46.6,30.04,NE,45,5.6,5.8,77,0.01,,OVC,0.12,WeatherDisplay:10.37,2013-06-05 00:02:00,
2013-06-04 19:07:00,53.6,46.6,30.04,NE,45,3.6,4.6,77,0.01,,OVC,0.12,WeatherDisplay:10.37,2013-06-05 00:07:00,
2013-06-04 19:12:00,53.8,47.1,30.04,NE,45,4.3,4.6,78,0.01,,OVC,0.12,WeatherDisplay:10.37,2013-06-05 00:12:00,
2013-06-04 19:17:00,53.8,47.1,30.04,NE,45,5.4,5.8,78,0.01,,OVC,0.12,WeatherDisplay:10.37,2013-06-05 00:17:00,
2013-06-04 19:22:00,53.8,47.1,30.04,NE,45,5.9,5.9,78,0.01,,OVC,0.12,WeatherDisplay:10.37,2013-06-05 00:22:00,
2013-06-04 19:27:00,53.8,47.1,30.04,NE,45,5.2,5.8,78,0.01,,OVC,0.12,WeatherDisplay:10.37,2013-06-05 00:27:00,
2013-06-04 19:32:00,53.8,47.1,30.04,ENE,68,6.2,6.2,78,0.01,,OVC,0.12,WeatherDisplay:10.37,2013-06-05 00:32:00,
2013-06-04 19:37:00,53.8,46.7,30.04,NE,45,4.7,5.8,77,0.00,,OVC,0.12,WeatherDisplay:10.37,2013-06-05 00:37:00,
2013-06-04 19:43:00,54.0,46.9,30.04,NE,45,5.9,5.9,77,0.00,,OVC,0.12,WeatherDisplay:10.37,2013-06-05 00:43:00,
2013-06-04 19:48:00,54.0,46.9,30.04,NE,45,6.9,6.9,77,0.00,,OVC,0.12,WeatherDisplay:10.37,2013-06-05 00:48:00,
2013-06-04 19:53:00,54.0,46.9,30.04,NNE,22,9.4,11.5,77,0.00,,OVC,0.12,WeatherDisplay:10.37,2013-06-05 00:53:00,
2013-06-04 19:58:00,54.0,46.9,30.04,ENE,68,10.5,10.5,77,0.00,,OVC,0.13,WeatherDisplay:10.37,2013-06-05 00:58:00,
2013-06-04 20:03:00,53.6,46.6,30.04,NNE,22,9.2,9.2,77,0.01,RA,OVC,0.13,WeatherDisplay:10.37,2013-06-05 01:03:00,
2013-06-04 20:08:00,53.8,46.7,30.04,NE,45,5.4,9.2,77,0.01,RA,OVC,0.13,WeatherDisplay:10.37,2013-06-05 01:08:00,
2013-06-04 20:13:00,54.0,46.9,30.06,NNE,22,5.4,5.4,77,0.01,,OVC,0.13,WeatherDisplay:10.37,2013-06-05 01:13:00,
2013-06-04 20:18:00,54.3,47.3,30.09,NNE,22,10.9,12.7,77,0.01,,OVC,0.13,WeatherDisplay:10.37,2013-06-05 01:18:00,
2013-06-04 20:23:00,54.3,46.9,30.06,NNE,22,6.0,6.0,76,0.02,RA,OVC,0.15,WeatherDisplay:10.37,2013-06-05 01:23:00,
2013-06-04 20:28:00,53.4,46.0,30.07,NNE,22,8.5,8.5,76,0.08,RA,OVC,0.20,WeatherDisplay:10.37,2013-06-05 01:28:00,
2013-06-04 20:33:00,52.9,44.8,30.09,NNE,22,6.9,8.1,74,0.09,RA,OVC,0.21,WeatherDisplay:10.37,2013-06-05 01:33:00,
2013-06-04 20:38:00,52.7,43.9,30.08,NNE,22,3.8,5.8,72,0.10,RA,OVC,0.22,WeatherDisplay:10.37,2013-06-05 01:38:00,
2013-06-04 20:43:00,52.5,43.4,30.07,NE,45,3.3,4.6,71,0.11,RA,OVC,0.23,WeatherDisplay:10.37,2013-06-05 01:43:00,
2013-06-04 20:48:00,52.3,43.6,30.06,ENE,68,4.3,4.6,72,0.11,RA,OVC,0.23,WeatherDisplay:10.37,2013-06-05 01:48:00,
2013-06-04 20:53:00,52.2,43.0,30.06,East,90,11.2,11.2,71,0.12,RA,OVC,0.24,WeatherDisplay:10.37,2013-06-05 01:53:00,
2013-06-04 20:58:00,52.2,43.0,30.05,East,90,10.5,10.5,71,0.11,RA,OVC,0.24,WeatherDisplay:10.37,2013-06-05 01:58:00,
2013-06-04 21:03:00,52.2,43.0,30.04,East,90,10.2,12.7,71,0.11,,OVC,0.24,WeatherDisplay:10.37,2013-06-05 02:03:00,
2013-06-04 21:08:00,52.5,43.4,30.04,ENE,68,13.2,15.0,71,0.11,,OVC,0.24,WeatherDisplay:10.37,2013-06-05 02:08:00,
2013-06-04 21:13:00,52.9,43.7,30.04,ENE,68,11.4,11.4,71,0.11,,OVC,0.24,WeatherDisplay:10.37,2013-06-05 02:13:00,
2013-06-04 21:18:00,52.9,44.1,30.04,East,90,6.7,10.4,72,0.11,,OVC,0.24,WeatherDisplay:10.37,2013-06-05 02:18:00,
2013-06-04 21:23:00,53.1,44.3,30.03,ENE,68,12.1,12.1,72,0.09,,OVC,0.24,WeatherDisplay:10.37,2013-06-05 02:23:00,
2013-06-04 21:28:00,53.2,44.4,30.03,East,90,6.7,9.2,72,0.04,,OVC,0.24,WeatherDisplay:10.37,2013-06-05 02:28:00,
2013-06-04 21:33:00,53.8,45.3,30.03,ESE,112,10.5,10.5,73,0.03,,OVC,0.24,WeatherDisplay:10.37,2013-06-05 02:33:00,
2013-06-04 21:38:00,54.3,46.6,30.03,SE,135,8.5,8.5,75,0.02,,OVC,0.24,WeatherDisplay:10.37,2013-06-05 02:38:00,
2013-06-04 21:43:00,54.5,47.1,30.03,East,90,9.0,9.2,76,0.01,,OVC,0.24,WeatherDisplay:10.37,2013-06-05 02:43:00,
2013-06-04 21:48:00,54.9,47.4,30.03,ESE,112,11.2,13.8,76,0.01,,OVC,0.24,WeatherDisplay:10.37,2013-06-05 02:48:00,
2013-06-04 21:53:00,54.9,47.4,30.03,East,90,9.9,11.5,76,0.00,,OVC,0.24,WeatherDisplay:10.37,2013-06-05 02:53:00,
2013-06-04 21:58:00,55.0,48.0,30.03,East,90,10.5,11.5,77,0.00,,OVC,0.24,WeatherDisplay:10.37,2013-06-05 02:58:00,
2013-06-04 22:03:00,55.0,48.0,30.03,ESE,112,12.1,12.1,77,0.00,,OVC,0.24,WeatherDisplay:10.37,2013-06-05 03:03:00,
2013-06-04 22:08:00,55.0,48.0,30.04,East,90,10.5,10.5,77,0.00,,OVC,0.24,WeatherDisplay:10.37,2013-06-05 03:08:00,
2013-06-04 22:13:00,55.0,48.0,30.04,East,90,11.6,11.6,77,0.00,,OVC,0.24,WeatherDisplay:10.37,2013-06-05 03:13:00,
2013-06-04 22:18:00,55.2,48.1,30.04,ESE,112,6.2,9.2,77,0.00,,OVC,0.24,WeatherDisplay:10.37,2013-06-05 03:18:00,
2013-06-04 22:23:00,55.2,48.1,30.04,East,90,6.4,8.1,77,0.00,,OVC,0.24,WeatherDisplay:10.37,2013-06-05 03:23:00,
2013-06-04 22:28:00,55.4,48.3,30.04,East,90,4.9,9.2,77,0.00,,OVC,0.24,WeatherDisplay:10.37,2013-06-05 03:28:00,
2013-06-04 22:33:00,55.4,48.7,30.04,East,90,6.9,8.1,78,0.00,,OVC,0.24,WeatherDisplay:10.37,2013-06-05 03:33:00,
2013-06-04 22:38:00,55.6,48.8,30.04,East,90,6.9,6.9,78,0.00,,OVC,0.24,WeatherDisplay:10.37,2013-06-05 03:38:00,
2013-06-04 22:43:00,55.8,49.0,30.04,East,90,8.7,8.7,78,0.00,,OVC,0.24,WeatherDisplay:10.37,2013-06-05 03:43:00,
2013-06-04 22:48:00,55.8,48.7,30.04,East,90,6.7,8.1,77,0.00,,OVC,0.24,WeatherDisplay:10.37,2013-06-05 03:48:00,
2013-06-04 22:53:00,55.8,48.7,30.04,ESE,112,8.1,8.1,77,0.00,,OVC,0.24,WeatherDisplay:10.37,2013-06-05 03:53:00,
2013-06-04 22:58:00,55.8,49.0,30.04,ESE,112,9.2,10.4,78,0.00,,OVC,0.24,WeatherDisplay:10.37,2013-06-05 03:58:00,
2013-06-04 23:01:00,55.9,49.2,30.04,East,90,10.5,10.5,78,0.00,,OVC,0.24,WeatherDisplay:10.37,2013-06-05 04:01:00,
2013-06-04 23:02:00,55.9,49.2,30.04,ENE,68,7.8,10.4,78,0.00,,OVC,0.24,WeatherDisplay:10.37,2013-06-05 04:02:00,
2013-06-04 23:07:00,56.1,49.4,30.03,ESE,112,9.7,10.5,78,0.00,,OVC,0.24,WeatherDisplay:10.37,2013-06-05 04:07:00,
2013-06-04 23:12:00,56.1,49.4,30.04,East,90,5.2,8.1,78,0.00,,OVC,0.24,WeatherDisplay:10.37,2013-06-05 04:12:00,
2013-06-04 23:17:00,56.1,49.4,30.04,East,90,6.0,6.9,78,0.00,,OVC,0.24,WeatherDisplay:10.37,2013-06-05 04:17:00,
2013-06-04 23:22:00,56.1,49.4,30.04,ESE,112,5.4,6.9,78,0.00,,OVC,0.24,WeatherDisplay:10.37,2013-06-05 04:22:00,
2013-06-04 23:27:00,56.3,49.5,30.04,ESE,112,7.1,8.1,78,0.00,,OVC,0.24,WeatherDisplay:10.37,2013-06-05 04:27:00,
2013-06-04 23:32:00,56.3,49.5,30.04,ENE,68,6.2,6.9,78,0.00,,OVC,0.24,WeatherDisplay:10.37,2013-06-05 04:32:00,
2013-06-04 23:37:00,56.3,49.5,30.03,East,90,6.9,6.9,78,0.00,,OVC,0.24,WeatherDisplay:10.37,2013-06-05 04:37:00,
2013-06-04 23:42:00,56.3,49.5,30.03,East,90,5.2,6.9,78,0.00,,OVC,0.24,WeatherDisplay:10.37,2013-06-05 04:42:00,
2013-06-04 23:47:00,56.3,49.5,30.03,ENE,68,6.9,6.9,78,0.00,,OVC,0.24,WeatherDisplay:10.37,2013-06-05 04:47:00,
2013-06-04 23:52:00,56.3,49.5,30.03,SE,135,5.4,5.8,78,0.00,,OVC,0.24,WeatherDisplay:10.37,2013-06-05 04:52:00,
2013-06-04 23:57:00,56.1,49.4,30.03,ESE,112,4.5,5.8,78,0.00,,OVC,0.24,WeatherDisplay:10.37,2013-06-05 04:57:00,